createdAt,value
2023-04-27T00:01:17.094Z,6.52
2023-04-27T00:03:45.340Z,6.44
2023-04-27T00:06:12.374Z,6.31
2023-04-27T00:08:39.238Z,6.13
2023-04-27T00:11:06.144Z,6.27
2023-04-27T00:13:32.927Z,6.17
2023-04-27T00:16:02.729Z,6.50
2023-04-27T00:18:30.581Z,6.28
2023-04-27T00:20:59.827Z,6.15
2023-04-27T00:23:27.428Z,6.45
2023-04-27T00:25:54.027Z,6.19
2023-04-27T00:28:20.781Z,6.26
2023-04-27T00:30:48.429Z,6.24
2023-04-27T00:33:16.270Z,6.07
2023-04-27T00:35:43.013Z,6.14
2023-04-27T00:38:10.600Z,6.20
2023-04-27T00:40:38.216Z,5.95
2023-04-27T00:43:05.015Z,6.32
2023-04-27T00:45:31.810Z,6.07
2023-04-27T00:48:01.325Z,6.32
2023-04-27T00:50:31.407Z,6.07
2023-04-27T00:52:58.289Z,6.10
2023-04-27T00:55:25.318Z,5.99
2023-04-27T00:57:52.200Z,6.14
2023-04-27T01:00:19.032Z,6.28
2023-04-27T01:02:47.425Z,6.05
2023-04-27T01:05:17.214Z,5.96
2023-04-27T01:07:46.560Z,5.87
2023-04-27T01:10:15.916Z,5.99
2023-04-27T01:12:42.570Z,5.78
2023-04-27T01:15:10.399Z,5.55
2023-04-27T01:17:37.105Z,5.84
2023-04-27T01:20:06.987Z,5.67
2023-04-27T01:22:33.778Z,5.90
2023-04-27T01:25:00.543Z,6.35
2023-04-27T01:27:27.259Z,6.03
2023-04-27T01:29:54.035Z,6.02
2023-04-27T01:32:20.757Z,6.07
2023-04-27T01:34:47.354Z,5.56
2023-04-27T01:37:15.295Z,5.85
2023-04-27T01:39:43.360Z,5.70
2023-04-27T01:42:10.784Z,5.91
2023-04-27T01:44:39.197Z,5.87
2023-04-27T01:47:05.881Z,5.41
2023-04-27T01:49:33.636Z,5.78
2023-04-27T01:52:00.458Z,5.76
2023-04-27T01:54:28.779Z,5.54
2023-04-27T01:56:55.691Z,5.26
2023-04-27T01:59:22.396Z,5.74
2023-04-27T02:01:49.073Z,6.01
2023-04-27T02:04:16.229Z,5.54
2023-04-27T02:06:43.207Z,5.56
2023-04-27T02:09:10.262Z,5.70
2023-04-27T02:11:41.930Z,5.72
2023-04-27T02:14:08.658Z,5.46
2023-04-27T02:16:35.555Z,5.39
2023-04-27T02:19:02.566Z,5.56
2023-04-27T02:21:29.684Z,5.48
2023-04-27T02:23:56.365Z,5.57
2023-04-27T02:26:28.767Z,5.64
2023-04-27T02:28:56.544Z,5.47
2023-04-27T02:31:24.474Z,5.45
2023-04-27T02:33:51.821Z,5.49
2023-04-27T02:36:18.669Z,5.36
2023-04-27T02:38:45.398Z,5.38
2023-04-27T02:41:12.069Z,5.79
2023-04-27T02:43:38.875Z,5.39
2023-04-27T02:46:05.911Z,5.15
2023-04-27T02:48:32.709Z,5.47
2023-04-27T02:51:02.343Z,5.37
2023-04-27T02:53:31.476Z,5.52
2023-04-27T02:55:58.670Z,5.64
2023-04-27T02:58:25.531Z,5.30
2023-04-27T03:00:55.896Z,5.82
2023-04-27T03:03:23.689Z,5.56
2023-04-27T03:05:50.582Z,5.28
2023-04-27T03:08:17.390Z,6.01
2023-04-27T03:10:44.000Z,5.92
2023-04-27T03:13:10.978Z,6.13
2023-04-27T03:15:37.720Z,6.27
2023-04-27T03:18:04.896Z,6.24
2023-04-27T03:20:31.815Z,6.35
2023-04-27T03:22:58.629Z,5.75
2023-04-27T03:25:25.497Z,5.87
2023-04-27T03:27:52.245Z,6.18
2023-04-27T03:30:19.144Z,5.42
2023-04-27T03:32:47.595Z,5.79
2023-04-27T03:35:15.279Z,5.81
2023-04-27T03:37:41.940Z,5.70
2023-04-27T03:40:09.409Z,5.73
2023-04-27T03:42:36.625Z,5.45
2023-04-27T03:45:04.520Z,5.63
2023-04-27T03:47:31.332Z,5.84
2023-04-27T03:49:58.080Z,5.62
2023-04-27T03:52:24.954Z,5.68
2023-04-27T03:54:51.788Z,5.66
2023-04-27T03:57:18.666Z,5.77
2023-04-27T03:59:45.315Z,5.45
2023-04-27T04:02:11.976Z,5.39
2023-04-27T04:04:39.165Z,5.56
2023-04-27T04:07:06.013Z,5.54
2023-04-27T04:09:32.915Z,5.50
2023-04-27T04:12:01.369Z,6.06
2023-04-27T04:14:29.059Z,5.48
2023-04-27T04:16:56.556Z,5.98
2023-04-27T04:19:23.264Z,5.84
2023-04-27T04:21:50.188Z,5.98
2023-04-27T04:24:18.215Z,6.28
2023-04-27T04:26:45.362Z,6.07
2023-04-27T04:29:12.605Z,6.14
2023-04-27T04:31:39.673Z,6.05
2023-04-27T04:34:07.974Z,6.27
2023-04-27T04:36:35.607Z,6.62
2023-04-27T04:39:02.891Z,6.72
2023-04-27T04:41:29.663Z,7.03
2023-04-27T04:43:59.169Z,7.08
2023-04-27T04:46:25.958Z,6.95
2023-04-27T04:48:54.702Z,6.73
2023-04-27T04:51:21.954Z,6.71
2023-04-27T04:53:49.710Z,6.72
2023-04-27T04:56:16.590Z,6.75
2023-04-27T04:58:43.394Z,6.97
2023-04-27T05:01:11.112Z,6.55
2023-04-27T05:03:38.209Z,6.42
2023-04-27T05:06:05.969Z,6.67
2023-04-27T05:08:32.896Z,6.52
2023-04-27T05:10:59.801Z,6.51
2023-04-27T05:13:26.720Z,6.24
2023-04-27T05:15:53.689Z,6.50
2023-04-27T05:18:20.813Z,6.39
2023-04-27T05:20:47.536Z,6.54
2023-04-27T05:23:14.291Z,6.34
2023-04-27T05:25:41.132Z,5.66
2023-04-27T05:28:08.884Z,5.36
2023-04-27T05:30:35.687Z,5.49
2023-04-27T05:33:03.660Z,5.11
2023-04-27T05:35:31.232Z,4.73
2023-04-27T05:37:58.010Z,5.01
2023-04-27T05:40:24.921Z,4.99
2023-04-27T05:42:51.563Z,4.59
2023-04-27T05:45:18.352Z,4.57
2023-04-27T05:47:45.112Z,4.44
2023-04-27T05:50:11.989Z,4.12
2023-04-27T05:52:39.070Z,4.14
2023-04-27T05:55:08.164Z,4.10
2023-04-27T05:57:34.843Z,4.63
2023-04-27T06:00:06.897Z,4.40
2023-04-27T06:02:39.158Z,4.51
2023-04-27T06:05:06.576Z,4.29
2023-04-27T06:07:33.344Z,3.99
2023-04-27T06:10:00.008Z,4.12
2023-04-27T06:12:26.681Z,4.73
2023-04-27T06:14:53.354Z,5.18
2023-04-27T06:17:21.204Z,4.65
2023-04-27T06:19:47.791Z,6.60
2023-04-27T06:22:14.471Z,9.17
2023-04-27T06:24:41.986Z,4.51
2023-04-27T06:27:08.766Z,4.08
2023-04-27T06:29:36.283Z,3.64
2023-04-27T06:32:06.259Z,3.41
2023-04-27T06:34:33.585Z,3.51
2023-04-27T06:37:00.263Z,3.65
2023-04-27T06:39:27.237Z,3.94
2023-04-27T06:41:54.023Z,3.97
2023-04-27T06:44:20.699Z,3.69
2023-04-27T06:46:47.362Z,3.62
2023-04-27T06:49:14.217Z,3.67
2023-04-27T06:51:41.170Z,3.45
2023-04-27T06:54:07.845Z,3.39
2023-04-27T06:56:34.571Z,4.04
2023-04-27T06:59:01.289Z,4.10
2023-04-27T07:01:27.989Z,3.43
2023-04-27T07:03:55.024Z,3.39
2023-04-27T07:06:22.194Z,3.61
2023-04-27T07:08:48.883Z,3.22
2023-04-27T07:11:15.899Z,3.40
2023-04-27T07:13:42.941Z,3.44
2023-04-27T07:16:09.955Z,3.42
2023-04-27T07:18:36.786Z,3.46
2023-04-27T07:21:03.583Z,3.22
2023-04-27T07:23:30.199Z,3.46
2023-04-27T07:25:57.184Z,3.13
2023-04-27T07:28:23.883Z,3.38
2023-04-27T07:30:50.975Z,3.51
2023-04-27T07:33:17.787Z,4.13
2023-04-27T07:35:44.471Z,3.45
2023-04-27T07:38:11.332Z,3.35
2023-04-27T07:40:38.164Z,3.48
2023-04-27T07:43:05.013Z,3.41
2023-04-27T07:45:32.298Z,4.03
2023-04-27T07:47:59.622Z,3.54
2023-04-27T07:50:28.009Z,3.38
2023-04-27T07:53:13.095Z,4.13
2023-04-27T07:55:40.767Z,4.26
2023-04-27T07:58:07.471Z,4.57
2023-04-27T08:00:34.214Z,3.64
2023-04-27T08:03:01.359Z,3.92
2023-04-27T08:05:28.995Z,3.83
2023-04-27T08:07:56.400Z,3.67
2023-04-27T08:10:23.523Z,4.20
2023-04-27T08:12:50.253Z,3.78
2023-04-27T08:15:17.016Z,3.89
2023-04-27T08:17:43.805Z,3.76
2023-04-27T08:20:11.284Z,4.01
2023-04-27T08:22:39.976Z,3.91
2023-04-27T08:25:08.026Z,3.77
2023-04-27T08:27:52.838Z,3.93
2023-04-27T08:30:19.554Z,4.09
2023-04-27T08:32:47.307Z,4.26
2023-04-27T08:35:14.833Z,3.95
2023-04-27T08:37:41.576Z,3.88
2023-04-27T08:40:09.351Z,3.79
2023-04-27T08:42:36.360Z,3.55
2023-04-27T08:45:04.312Z,3.86
2023-04-27T08:47:41.906Z,3.70
2023-04-27T08:50:11.216Z,3.65
2023-04-27T08:52:37.938Z,3.58
2023-04-27T08:55:06.808Z,3.78
2023-04-27T08:57:34.408Z,3.71
2023-04-27T09:00:03.727Z,3.87
2023-04-27T09:02:30.641Z,3.79
2023-04-27T09:04:57.624Z,4.12
2023-04-27T09:07:27.971Z,3.83
2023-04-27T09:10:05.099Z,3.90
2023-04-27T09:12:32.466Z,4.14
2023-04-27T09:15:00.568Z,4.70
2023-04-27T09:17:27.776Z,4.01
2023-04-27T09:20:12.750Z,4.89
2023-04-27T09:22:46.810Z,5.50
2023-04-27T09:25:27.252Z,5.21
2023-04-27T09:27:54.580Z,6.11
2023-04-27T09:30:21.521Z,4.53
2023-04-27T09:32:53.072Z,5.20
2023-04-27T09:35:24.144Z,3.92
2023-04-27T09:37:52.397Z,4.06
2023-04-27T09:40:27.499Z,4.12
2023-04-27T09:42:58.498Z,4.33
2023-04-27T09:45:25.458Z,4.78
2023-04-27T09:47:52.568Z,3.88
2023-04-27T09:50:21.358Z,3.91
2023-04-27T09:52:48.190Z,4.34
2023-04-27T09:55:25.406Z,3.93
2023-04-27T09:58:14.041Z,3.89
2023-04-27T10:01:05.359Z,3.72
2023-04-27T10:03:56.219Z,4.14
2023-04-27T10:06:53.111Z,3.95
2023-04-27T10:09:23.114Z,3.94
2023-04-27T10:11:51.083Z,3.70
2023-04-27T10:14:19.199Z,3.70
2023-04-27T10:16:50.267Z,3.75
2023-04-27T10:19:17.059Z,4.36
2023-04-27T10:22:07.893Z,3.74
2023-04-27T10:24:36.247Z,3.43
2023-04-27T10:27:11.498Z,3.55
2023-04-27T10:29:39.793Z,3.89
2023-04-27T10:32:08.448Z,4.20
2023-04-27T10:34:38.378Z,3.71
2023-04-27T10:37:08.981Z,3.78
2023-04-27T10:39:48.502Z,3.80
2023-04-27T10:42:27.747Z,3.62
2023-04-27T10:44:56.471Z,3.56
2023-04-27T10:47:24.056Z,3.53
2023-04-27T10:49:54.033Z,3.47
2023-04-27T10:52:20.872Z,3.42
2023-04-27T10:54:47.608Z,3.49
2023-04-27T10:57:14.372Z,3.72
2023-04-27T10:59:51.443Z,3.74
2023-04-27T11:02:25.764Z,3.83
2023-04-27T11:04:54.884Z,3.96
2023-04-27T11:07:25.924Z,3.83
2023-04-27T11:09:53.545Z,3.43
2023-04-27T11:12:21.158Z,3.95
2023-04-27T11:14:47.835Z,3.70
2023-04-27T11:17:15.112Z,3.77
2023-04-27T11:19:46.964Z,3.57
2023-04-27T11:22:16.352Z,3.57
2023-04-27T11:24:49.566Z,3.75
2023-04-27T11:27:17.221Z,3.95
2023-04-27T11:29:44.299Z,4.07
2023-04-27T11:32:37.930Z,3.81
2023-04-27T11:35:05.243Z,4.45
2023-04-27T11:37:32.414Z,4.27
2023-04-27T11:39:59.716Z,4.34
2023-04-27T11:42:27.720Z,4.32
2023-04-27T11:44:55.232Z,4.17
2023-04-27T11:47:22.655Z,4.36
2023-04-27T11:49:49.712Z,4.58
2023-04-27T11:52:16.481Z,4.25
2023-04-27T11:54:50.396Z,4.48
2023-04-27T11:57:17.100Z,4.29
2023-04-27T11:59:44.476Z,3.87
2023-04-27T12:02:11.366Z,4.17
2023-04-27T12:04:38.421Z,4.24
2023-04-27T12:07:05.235Z,3.89
2023-04-27T12:09:31.873Z,4.12
2023-04-27T12:11:58.602Z,3.82
2023-04-27T12:14:25.354Z,3.84
2023-04-27T12:16:52.290Z,3.80
2023-04-27T12:19:19.122Z,3.57
2023-04-27T12:21:46.095Z,3.84
2023-04-27T12:24:13.020Z,3.83
2023-04-27T12:26:40.013Z,4.56
2023-04-27T12:29:07.305Z,4.11
2023-04-27T12:31:34.226Z,4.23
2023-04-27T12:34:01.322Z,3.82
2023-04-27T12:36:28.240Z,4.07
2023-04-27T12:38:57.853Z,4.29
2023-04-27T12:41:25.411Z,4.09
2023-04-27T12:43:52.565Z,3.83
2023-04-27T12:46:19.544Z,3.57
2023-04-27T12:48:48.055Z,3.82
2023-04-27T12:51:19.021Z,3.68
2023-04-27T12:53:47.111Z,3.80
2023-04-27T12:56:14.060Z,3.50
2023-04-27T12:58:41.248Z,3.85
2023-04-27T13:01:14.315Z,4.05
2023-04-27T13:03:42.528Z,3.47
2023-04-27T13:06:10.014Z,3.77
2023-04-27T13:08:37.173Z,4.22
2023-04-27T13:11:03.896Z,3.90
2023-04-27T13:13:31.372Z,4.12
2023-04-27T13:15:58.172Z,3.69
2023-04-27T13:18:25.056Z,3.95
2023-04-27T13:20:51.798Z,3.89
2023-04-27T13:23:18.638Z,3.75
2023-04-27T13:25:45.687Z,3.85
2023-04-27T13:28:13.829Z,4.14
2023-04-27T13:30:40.705Z,3.82
2023-04-27T13:33:22.027Z,3.84
2023-04-27T13:35:51.097Z,3.91
2023-04-27T13:38:17.759Z,3.71
2023-04-27T13:40:44.453Z,4.01
2023-04-27T13:43:11.136Z,3.93
2023-04-27T13:45:39.172Z,3.95
2023-04-27T13:48:06.749Z,4.18
2023-04-27T13:50:33.764Z,3.69
2023-04-27T13:53:01.234Z,3.81
2023-04-27T13:55:28.072Z,3.68
2023-04-27T13:57:54.824Z,3.84
2023-04-27T14:00:22.168Z,3.96
2023-04-27T14:02:48.999Z,3.79
2023-04-27T14:05:15.859Z,3.97
2023-04-27T14:07:42.725Z,3.96
2023-04-27T14:10:09.926Z,3.89
2023-04-27T14:12:37.186Z,3.83
2023-04-27T14:15:06.120Z,3.86
2023-04-27T14:17:32.976Z,3.59
2023-04-27T14:19:59.885Z,3.60
2023-04-27T14:22:26.958Z,3.64
2023-04-27T14:24:53.583Z,3.54
2023-04-27T14:27:20.516Z,3.44
2023-04-27T14:29:47.254Z,3.66
2023-04-27T14:32:14.125Z,3.67
2023-04-27T14:34:41.452Z,4.11
2023-04-27T14:37:08.302Z,4.06
2023-04-27T14:39:35.071Z,4.81
2023-04-27T14:42:01.781Z,4.73
2023-04-27T14:44:28.497Z,3.98
2023-04-27T14:46:55.236Z,3.55
2023-04-27T14:49:22.115Z,4.11
2023-04-27T14:51:48.902Z,4.00
2023-04-27T14:54:15.632Z,3.46
2023-04-27T14:56:42.314Z,3.60
2023-04-27T14:59:09.074Z,3.82
2023-04-27T15:01:36.836Z,4.12
2023-04-27T15:04:03.815Z,4.19
2023-04-27T15:06:31.618Z,4.39
2023-04-27T15:08:58.281Z,3.67
2023-04-27T15:11:24.999Z,3.86
2023-04-27T15:13:51.668Z,4.08
2023-04-27T15:16:19.378Z,3.97
2023-04-27T15:18:46.776Z,3.77
2023-04-27T15:21:13.400Z,3.78
2023-04-27T15:23:40.149Z,3.68
2023-04-27T15:26:06.884Z,3.71
2023-04-27T15:28:33.644Z,3.77
2023-04-27T15:31:00.478Z,3.53
2023-04-27T15:33:27.434Z,3.85
2023-04-27T15:35:54.593Z,3.69
2023-04-27T15:38:21.238Z,3.88
2023-04-27T15:40:47.956Z,4.07
2023-04-27T15:43:15.104Z,3.59
2023-04-27T15:45:43.606Z,4.02
2023-04-27T15:48:11.586Z,4.08
2023-04-27T15:50:38.407Z,3.86
2023-04-27T15:53:05.126Z,4.34
2023-04-27T15:55:31.952Z,4.38
2023-04-27T15:57:58.720Z,4.51
2023-04-27T16:00:25.514Z,4.62
2023-04-27T16:02:52.773Z,4.53
2023-04-27T16:05:19.796Z,4.11
2023-04-27T16:07:46.524Z,4.00
2023-04-27T16:10:13.418Z,4.06
2023-04-27T16:12:40.463Z,3.93
2023-04-27T16:15:10.727Z,3.90
2023-04-27T16:17:38.414Z,3.97
2023-04-27T16:20:06.141Z,3.90
2023-04-27T16:22:35.914Z,4.27
2023-04-27T16:25:03.479Z,3.86
2023-04-27T16:27:30.386Z,4.01
2023-04-27T16:29:57.077Z,3.95
2023-04-27T16:32:24.073Z,4.01
2023-04-27T16:34:50.852Z,4.69
2023-04-27T16:37:17.466Z,5.62
2023-04-27T16:39:44.501Z,6.03
2023-04-27T16:42:12.853Z,4.73
2023-04-27T16:44:39.805Z,4.61
2023-04-27T16:47:06.563Z,4.92
2023-04-27T16:49:33.408Z,4.80
2023-04-27T16:52:00.172Z,5.42
2023-04-27T16:54:26.968Z,4.99
2023-04-27T16:56:55.243Z,4.89
2023-04-27T16:59:22.347Z,4.04
2023-04-27T17:01:49.187Z,4.46
2023-04-27T17:04:15.961Z,4.19
2023-04-27T17:06:44.783Z,4.62
2023-04-27T17:09:11.487Z,4.41
2023-04-27T17:11:38.205Z,4.38
2023-04-27T17:14:05.067Z,4.64
2023-04-27T17:16:31.805Z,4.46
2023-04-27T17:18:58.617Z,4.60
2023-04-27T17:21:26.776Z,5.04
2023-04-27T17:23:53.582Z,4.88
2023-04-27T17:26:20.971Z,5.12
2023-04-27T17:28:48.403Z,5.30
2023-04-27T17:31:16.824Z,5.62
2023-04-27T17:33:43.564Z,5.34
2023-04-27T17:36:10.985Z,5.08
2023-04-27T17:38:37.961Z,5.38
2023-04-27T17:41:04.818Z,5.18
2023-04-27T17:43:31.868Z,5.12
2023-04-27T17:45:58.676Z,6.29
2023-04-27T17:48:25.670Z,6.55
2023-04-27T17:50:52.971Z,5.71
2023-04-27T17:53:19.943Z,5.29
2023-04-27T17:55:47.278Z,6.12
2023-04-27T17:58:14.949Z,9.95
2023-04-27T18:00:42.636Z,8.96
2023-04-27T18:03:11.683Z,10.32
2023-04-27T18:05:38.506Z,6.93
2023-04-27T18:08:05.410Z,5.89
2023-04-27T18:10:32.177Z,6.42
2023-04-27T18:12:58.949Z,6.30
2023-04-27T18:15:25.686Z,5.67
2023-04-27T18:17:52.403Z,5.38
2023-04-27T18:20:18.977Z,5.51
2023-04-27T18:22:45.902Z,6.39
2023-04-27T18:25:12.964Z,6.21
2023-04-27T18:27:39.721Z,5.80
2023-04-27T18:30:07.868Z,6.27
2023-04-27T18:32:34.932Z,6.67
2023-04-27T18:35:02.384Z,6.50
2023-04-27T18:37:29.141Z,6.60
2023-04-27T18:39:56.075Z,7.03
2023-04-27T18:42:23.327Z,6.84
2023-04-27T18:44:54.039Z,6.65
2023-04-27T18:47:20.910Z,6.50
2023-04-27T18:49:47.898Z,6.68
2023-04-27T18:52:14.786Z,7.25
2023-04-27T18:54:41.934Z,8.14
2023-04-27T18:57:08.903Z,8.69
2023-04-27T18:59:38.211Z,7.77
2023-04-27T19:02:06.256Z,7.14
2023-04-27T19:04:33.482Z,6.11
2023-04-27T19:07:01.206Z,5.77
2023-04-27T19:09:28.012Z,5.92
2023-04-27T19:12:02.776Z,5.50
2023-04-27T19:14:31.323Z,5.65
2023-04-27T19:16:58.421Z,5.25
2023-04-27T19:19:27.295Z,5.95
2023-04-27T19:21:54.075Z,6.36
2023-04-27T19:24:20.904Z,6.20
2023-04-27T19:26:47.832Z,6.32
2023-04-27T19:29:14.825Z,6.70
2023-04-27T19:31:42.159Z,6.37
2023-04-27T19:34:08.874Z,6.50
2023-04-27T19:36:35.699Z,6.00
2023-04-27T19:39:03.062Z,5.57
2023-04-27T19:41:29.783Z,6.07
2023-04-27T19:43:56.551Z,6.10
2023-04-27T19:46:23.367Z,6.29
2023-04-27T19:48:54.901Z,6.11
2023-04-27T19:51:21.485Z,6.07
2023-04-27T19:53:48.798Z,6.66
2023-04-27T19:56:15.540Z,6.94
2023-04-27T19:58:42.402Z,6.55
2023-04-27T20:01:09.902Z,6.18
2023-04-27T20:03:39.477Z,6.31
2023-04-27T20:06:06.651Z,5.68
2023-04-27T20:08:33.636Z,5.96
2023-04-27T20:11:00.573Z,5.73
2023-04-27T20:13:27.194Z,5.94
2023-04-27T20:15:54.077Z,5.84
2023-04-27T20:18:21.323Z,6.31
2023-04-27T20:20:49.285Z,6.03
2023-04-27T20:23:16.020Z,5.41
2023-04-27T20:25:42.886Z,5.64
2023-04-27T20:28:09.603Z,6.01
2023-04-27T20:30:36.276Z,5.59
2023-04-27T20:33:03.436Z,5.78
2023-04-27T20:35:30.858Z,5.94
2023-04-27T20:37:58.311Z,5.99
2023-04-27T20:40:25.161Z,6.08
2023-04-27T20:42:51.898Z,6.12
2023-04-27T20:45:18.873Z,6.53
2023-04-27T20:47:45.861Z,7.14
2023-04-27T20:50:12.832Z,6.64
2023-04-27T20:52:39.692Z,6.69
2023-04-27T20:55:06.926Z,6.02
2023-04-27T20:57:33.779Z,6.39
2023-04-27T21:00:00.824Z,6.31
2023-04-27T21:02:27.668Z,6.76
2023-04-27T21:04:55.596Z,6.98
2023-04-27T21:07:22.299Z,6.75
2023-04-27T21:09:49.012Z,7.05
2023-04-27T21:12:17.335Z,6.58
2023-04-27T21:14:44.444Z,6.86
2023-04-27T21:17:14.562Z,6.80
2023-04-27T21:19:41.718Z,6.85
2023-04-27T21:22:08.464Z,6.84
2023-04-27T21:24:35.372Z,6.86
2023-04-27T21:27:02.957Z,7.14
2023-04-27T21:29:29.627Z,7.32
2023-04-27T21:31:56.539Z,7.00
2023-04-27T21:34:23.269Z,7.64
2023-04-27T21:36:50.117Z,7.90
2023-04-27T21:39:16.872Z,8.12
2023-04-27T21:41:43.614Z,8.78
2023-04-27T21:44:10.668Z,8.75
2023-04-27T21:46:37.474Z,9.15
2023-04-27T21:49:04.549Z,9.23
2023-04-27T21:51:34.310Z,10.03
2023-04-27T21:54:01.315Z,9.32
2023-04-27T21:56:28.250Z,8.97
2023-04-27T21:58:54.878Z,9.00
2023-04-27T22:01:22.463Z,8.73
2023-04-27T22:03:50.004Z,9.30
2023-04-27T22:06:17.062Z,9.14
2023-04-27T22:08:43.839Z,8.99
2023-04-27T22:11:10.841Z,9.01
2023-04-27T22:13:37.571Z,8.65
2023-04-27T22:16:04.979Z,8.60
2023-04-27T22:18:31.859Z,8.25
2023-04-27T22:20:58.626Z,8.32
2023-04-27T22:23:25.365Z,7.95
2023-04-27T22:25:52.023Z,7.94
2023-04-27T22:28:18.683Z,7.53
2023-04-27T22:30:45.890Z,7.75
2023-04-27T22:33:12.901Z,7.18
2023-04-27T22:35:40.294Z,7.77
2023-04-27T22:38:07.153Z,7.35
2023-04-27T22:40:33.746Z,7.64
2023-04-27T22:43:00.510Z,7.44
2023-04-27T22:45:27.264Z,6.87
2023-04-27T22:47:54.190Z,6.74
2023-04-27T22:50:21.152Z,7.01
2023-04-27T22:52:48.243Z,7.10
2023-04-27T22:55:15.549Z,6.78
2023-04-27T22:57:42.808Z,6.49
2023-04-27T23:00:12.940Z,6.50
2023-04-27T23:02:39.920Z,6.50
2023-04-27T23:05:07.741Z,6.71
2023-04-27T23:07:34.578Z,6.50
2023-04-27T23:10:03.401Z,6.61
2023-04-27T23:12:31.555Z,6.74
2023-04-27T23:14:58.810Z,6.52
2023-04-27T23:17:31.537Z,6.76
2023-04-27T23:19:59.383Z,6.61
2023-04-27T23:22:26.298Z,6.58
2023-04-27T23:24:53.455Z,7.02
2023-04-27T23:27:20.883Z,6.77
2023-04-27T23:29:47.564Z,7.09
2023-04-27T23:32:14.379Z,7.21
2023-04-27T23:34:41.115Z,7.10
2023-04-27T23:37:07.868Z,6.80
2023-04-27T23:39:34.590Z,6.85
2023-04-27T23:42:01.437Z,7.14
2023-04-27T23:44:28.391Z,7.55
2023-04-27T23:46:55.216Z,7.21
2023-04-27T23:49:21.991Z,6.97
2023-04-27T23:51:49.523Z,7.28
2023-04-27T23:54:16.333Z,7.64
2023-04-27T23:56:43.231Z,7.40
2023-04-27T23:59:10.489Z,7.18
